sensor_id;sensor_type;location;lat;lon;timestamp;P1;durP1;ratioP1;P2;durP2;ratioP2
33802;SDS011;20110;53.120;5.786;2022-07-23T00:02:05;15.73;;;6.68;;
33802;SDS011;20110;53.120;5.786;2022-07-23T00:04:32;11.52;;;7.05;;
33802;SDS011;20110;53.120;5.786;2022-07-23T00:06:58;17.65;;;7.03;;
33802;SDS011;20110;53.120;5.786;2022-07-23T00:09:24;14.48;;;7.32;;
33802;SDS011;20110;53.120;5.786;2022-07-23T00:11:50;10.00;;;6.20;;
33802;SDS011;20110;53.120;5.786;2022-07-23T00:14:15;9.10;;;6.30;;
33802;SDS011;20110;53.120;5.786;2022-07-23T00:16:41;9.93;;;6.85;;
33802;SDS011;20110;53.120;5.786;2022-07-23T00:19:07;8.85;;;7.10;;
33802;SDS011;20110;53.120;5.786;2022-07-23T00:21:34;7.55;;;5.97;;
33802;SDS011;20110;53.120;5.786;2022-07-23T00:24:00;9.38;;;7.15;;
33802;SDS011;20110;53.120;5.786;2022-07-23T00:26:26;12.13;;;7.10;;
33802;SDS011;20110;53.120;5.786;2022-07-23T00:28:52;13.10;;;7.72;;
33802;SDS011;20110;53.120;5.786;2022-07-23T00:31:17;8.80;;;7.03;;
33802;SDS011;20110;53.120;5.786;2022-07-23T00:33:43;18.70;;;7.32;;
33802;SDS011;20110;53.120;5.786;2022-07-23T00:36:09;9.77;;;6.65;;
33802;SDS011;20110;53.120;5.786;2022-07-23T00:38:35;12.30;;;7.00;;
33802;SDS011;20110;53.120;5.786;2022-07-23T00:41:01;13.35;;;6.95;;
33802;SDS011;20110;53.120;5.786;2022-07-23T00:43:27;14.48;;;6.93;;
33802;SDS011;20110;53.120;5.786;2022-07-23T00:45:53;7.97;;;6.57;;
33802;SDS011;20110;53.120;5.786;2022-07-23T00:48:19;13.65;;;7.45;;
33802;SDS011;20110;53.120;5.786;2022-07-23T00:50:44;8.32;;;6.57;;
33802;SDS011;20110;53.120;5.786;2022-07-23T00:53:10;9.10;;;5.38;;
33802;SDS011;20110;53.120;5.786;2022-07-23T00:55:37;9.38;;;6.55;;
33802;SDS011;20110;53.120;5.786;2022-07-23T00:58:03;16.52;;;6.72;;
33802;SDS011;20110;53.120;5.786;2022-07-23T01:00:31;11.70;;;7.35;;
33802;SDS011;20110;53.120;5.786;2022-07-23T01:02:56;15.00;;;7.05;;
33802;SDS011;20110;53.120;5.786;2022-07-23T01:05:22;14.93;;;7.50;;
33802;SDS011;20110;53.120;5.786;2022-07-23T01:07:49;13.90;;;7.53;;
33802;SDS011;20110;53.120;5.786;2022-07-23T01:10:16;12.35;;;7.70;;
33802;SDS011;20110;53.120;5.786;2022-07-23T01:12:58;14.00;;;7.22;;
33802;SDS011;20110;53.120;5.786;2022-07-23T01:15:28;10.80;;;7.53;;
33802;SDS011;20110;53.120;5.786;2022-07-23T01:17:54;11.27;;;7.70;;
33802;SDS011;20110;53.120;5.786;2022-07-23T01:20:20;17.05;;;8.25;;
33802;SDS011;20110;53.120;5.786;2022-07-23T01:22:47;13.35;;;8.32;;
33802;SDS011;20110;53.120;5.786;2022-07-23T01:25:13;20.38;;;7.80;;
33802;SDS011;20110;53.120;5.786;2022-07-23T01:27:39;14.00;;;7.55;;
33802;SDS011;20110;53.120;5.786;2022-07-23T01:30:06;17.17;;;8.45;;
33802;SDS011;20110;53.120;5.786;2022-07-23T01:32:33;11.75;;;8.63;;
33802;SDS011;20110;53.120;5.786;2022-07-23T01:34:58;13.85;;;7.88;;
33802;SDS011;20110;53.120;5.786;2022-07-23T01:37:24;11.10;;;7.50;;
33802;SDS011;20110;53.120;5.786;2022-07-23T01:39:50;16.42;;;8.07;;
33802;SDS011;20110;53.120;5.786;2022-07-23T01:42:16;13.57;;;8.38;;
33802;SDS011;20110;53.120;5.786;2022-07-23T01:44:41;15.98;;;8.80;;
33802;SDS011;20110;53.120;5.786;2022-07-23T01:47:07;15.18;;;8.60;;
33802;SDS011;20110;53.120;5.786;2022-07-23T01:49:33;18.58;;;9.18;;
33802;SDS011;20110;53.120;5.786;2022-07-23T01:51:59;17.08;;;8.90;;
33802;SDS011;20110;53.120;5.786;2022-07-23T01:54:34;18.60;;;8.57;;
33802;SDS011;20110;53.120;5.786;2022-07-23T01:57:00;14.57;;;9.07;;
33802;SDS011;20110;53.120;5.786;2022-07-23T01:59:26;15.10;;;8.45;;
33802;SDS011;20110;53.120;5.786;2022-07-23T02:01:53;17.55;;;8.13;;
33802;SDS011;20110;53.120;5.786;2022-07-23T02:04:19;16.05;;;9.32;;
33802;SDS011;20110;53.120;5.786;2022-07-23T02:06:47;16.50;;;9.52;;
33802;SDS011;20110;53.120;5.786;2022-07-23T02:09:13;19.25;;;10.00;;
33802;SDS011;20110;53.120;5.786;2022-07-23T02:11:39;15.25;;;9.00;;
33802;SDS011;20110;53.120;5.786;2022-07-23T02:14:06;17.40;;;8.95;;
33802;SDS011;20110;53.120;5.786;2022-07-23T02:16:31;15.45;;;9.35;;
33802;SDS011;20110;53.120;5.786;2022-07-23T02:18:58;17.45;;;10.32;;
33802;SDS011;20110;53.120;5.786;2022-07-23T02:21:23;22.15;;;9.25;;
33802;SDS011;20110;53.120;5.786;2022-07-23T02:23:49;22.38;;;8.98;;
33802;SDS011;20110;53.120;5.786;2022-07-23T02:26:15;24.50;;;10.45;;
33802;SDS011;20110;53.120;5.786;2022-07-23T02:28:41;19.65;;;9.23;;
33802;SDS011;20110;53.120;5.786;2022-07-23T02:31:07;17.60;;;9.50;;
33802;SDS011;20110;53.120;5.786;2022-07-23T02:33:32;19.23;;;10.82;;
33802;SDS011;20110;53.120;5.786;2022-07-23T02:35:59;17.63;;;9.07;;
33802;SDS011;20110;53.120;5.786;2022-07-23T02:38:25;23.17;;;9.38;;
33802;SDS011;20110;53.120;5.786;2022-07-23T02:40:51;17.35;;;8.82;;
33802;SDS011;20110;53.120;5.786;2022-07-23T02:43:17;12.43;;;7.97;;
33802;SDS011;20110;53.120;5.786;2022-07-23T02:45:43;13.77;;;7.32;;
33802;SDS011;20110;53.120;5.786;2022-07-23T02:48:09;14.63;;;7.85;;
33802;SDS011;20110;53.120;5.786;2022-07-23T02:50:37;14.45;;;7.68;;
33802;SDS011;20110;53.120;5.786;2022-07-23T02:53:03;13.77;;;8.35;;
33802;SDS011;20110;53.120;5.786;2022-07-23T02:55:29;12.60;;;8.18;;
33802;SDS011;20110;53.120;5.786;2022-07-23T02:57:56;14.93;;;8.00;;
33802;SDS011;20110;53.120;5.786;2022-07-23T03:00:22;11.38;;;7.03;;
33802;SDS011;20110;53.120;5.786;2022-07-23T03:02:48;14.85;;;6.80;;
33802;SDS011;20110;53.120;5.786;2022-07-23T03:05:14;7.97;;;6.15;;
33802;SDS011;20110;53.120;5.786;2022-07-23T03:07:41;9.07;;;6.55;;
33802;SDS011;20110;53.120;5.786;2022-07-23T03:10:06;19.00;;;6.97;;
33802;SDS011;20110;53.120;5.786;2022-07-23T03:12:33;15.13;;;6.78;;
33802;SDS011;20110;53.120;5.786;2022-07-23T03:14:59;14.95;;;7.43;;
33802;SDS011;20110;53.120;5.786;2022-07-23T03:17:26;12.82;;;7.65;;
33802;SDS011;20110;53.120;5.786;2022-07-23T03:19:52;11.82;;;7.78;;
33802;SDS011;20110;53.120;5.786;2022-07-23T03:22:18;15.65;;;9.48;;
33802;SDS011;20110;53.120;5.786;2022-07-23T03:24:44;15.18;;;8.68;;
33802;SDS011;20110;53.120;5.786;2022-07-23T03:27:19;12.18;;;8.35;;
33802;SDS011;20110;53.120;5.786;2022-07-23T03:29:50;15.15;;;9.02;;
33802;SDS011;20110;53.120;5.786;2022-07-23T03:32:17;12.45;;;8.35;;
33802;SDS011;20110;53.120;5.786;2022-07-23T03:34:43;13.93;;;9.77;;
33802;SDS011;20110;53.120;5.786;2022-07-23T03:37:09;15.70;;;8.88;;
33802;SDS011;20110;53.120;5.786;2022-07-23T03:39:34;16.48;;;8.95;;
33802;SDS011;20110;53.120;5.786;2022-07-23T03:42:00;15.13;;;8.70;;
33802;SDS011;20110;53.120;5.786;2022-07-23T03:44:26;19.50;;;9.05;;
33802;SDS011;20110;53.120;5.786;2022-07-23T03:46:52;17.55;;;9.38;;
33802;SDS011;20110;53.120;5.786;2022-07-23T03:49:19;22.02;;;9.57;;
33802;SDS011;20110;53.120;5.786;2022-07-23T03:51:45;22.02;;;8.68;;
33802;SDS011;20110;53.120;5.786;2022-07-23T03:54:11;15.00;;;9.18;;
33802;SDS011;20110;53.120;5.786;2022-07-23T03:56:36;20.30;;;9.48;;
33802;SDS011;20110;53.120;5.786;2022-07-23T03:59:02;14.45;;;8.52;;
33802;SDS011;20110;53.120;5.786;2022-07-23T04:01:28;10.88;;;8.13;;
33802;SDS011;20110;53.120;5.786;2022-07-23T04:03:54;13.60;;;8.80;;
33802;SDS011;20110;53.120;5.786;2022-07-23T04:06:20;13.27;;;9.00;;
33802;SDS011;20110;53.120;5.786;2022-07-23T04:08:46;19.92;;;9.55;;
33802;SDS011;20110;53.120;5.786;2022-07-23T04:11:11;16.90;;;9.52;;
33802;SDS011;20110;53.120;5.786;2022-07-23T04:13:37;11.73;;;8.73;;
33802;SDS011;20110;53.120;5.786;2022-07-23T04:16:05;17.73;;;9.45;;
33802;SDS011;20110;53.120;5.786;2022-07-23T04:18:31;21.23;;;9.80;;
33802;SDS011;20110;53.120;5.786;2022-07-23T04:20:57;14.90;;;8.95;;
33802;SDS011;20110;53.120;5.786;2022-07-23T04:23:23;16.50;;;9.43;;
33802;SDS011;20110;53.120;5.786;2022-07-23T04:25:48;25.73;;;9.82;;
33802;SDS011;20110;53.120;5.786;2022-07-23T04:28:14;19.50;;;8.88;;
33802;SDS011;20110;53.120;5.786;2022-07-23T04:30:40;18.58;;;8.88;;
33802;SDS011;20110;53.120;5.786;2022-07-23T04:33:06;11.82;;;8.40;;
33802;SDS011;20110;53.120;5.786;2022-07-23T04:35:32;20.50;;;8.93;;
33802;SDS011;20110;53.120;5.786;2022-07-23T04:37:59;13.23;;;7.85;;
33802;SDS011;20110;53.120;5.786;2022-07-23T04:40:25;15.75;;;9.15;;
33802;SDS011;20110;53.120;5.786;2022-07-23T04:42:52;13.32;;;8.23;;
33802;SDS011;20110;53.120;5.786;2022-07-23T04:45:18;17.15;;;7.97;;
33802;SDS011;20110;53.120;5.786;2022-07-23T04:47:44;11.13;;;6.88;;
33802;SDS011;20110;53.120;5.786;2022-07-23T04:50:10;11.57;;;7.38;;
33802;SDS011;20110;53.120;5.786;2022-07-23T04:52:36;15.45;;;7.25;;
33802;SDS011;20110;53.120;5.786;2022-07-23T04:55:02;12.13;;;7.30;;
33802;SDS011;20110;53.120;5.786;2022-07-23T04:57:29;12.32;;;8.18;;
33802;SDS011;20110;53.120;5.786;2022-07-23T04:59:55;10.02;;;7.57;;
33802;SDS011;20110;53.120;5.786;2022-07-23T05:02:20;18.40;;;7.82;;
33802;SDS011;20110;53.120;5.786;2022-07-23T05:04:46;16.92;;;7.80;;
33802;SDS011;20110;53.120;5.786;2022-07-23T05:07:12;25.33;;;7.70;;
33802;SDS011;20110;53.120;5.786;2022-07-23T05:09:38;13.93;;;8.05;;
33802;SDS011;20110;53.120;5.786;2022-07-23T05:12:04;12.20;;;8.25;;
33802;SDS011;20110;53.120;5.786;2022-07-23T05:14:30;10.55;;;8.07;;
33802;SDS011;20110;53.120;5.786;2022-07-23T05:16:56;10.68;;;7.00;;
33802;SDS011;20110;53.120;5.786;2022-07-23T05:19:22;10.75;;;7.93;;
33802;SDS011;20110;53.120;5.786;2022-07-23T05:21:47;12.88;;;7.10;;
33802;SDS011;20110;53.120;5.786;2022-07-23T05:24:13;8.15;;;6.85;;
33802;SDS011;20110;53.120;5.786;2022-07-23T05:26:39;13.18;;;6.25;;
33802;SDS011;20110;53.120;5.786;2022-07-23T05:29:05;7.60;;;6.03;;
33802;SDS011;20110;53.120;5.786;2022-07-23T05:31:30;6.53;;;5.13;;
33802;SDS011;20110;53.120;5.786;2022-07-23T05:33:56;8.05;;;5.57;;
33802;SDS011;20110;53.120;5.786;2022-07-23T05:36:22;8.50;;;5.20;;
33802;SDS011;20110;53.120;5.786;2022-07-23T05:38:47;10.73;;;5.13;;
33802;SDS011;20110;53.120;5.786;2022-07-23T05:41:13;8.85;;;4.97;;
33802;SDS011;20110;53.120;5.786;2022-07-23T05:43:39;5.53;;;4.45;;
33802;SDS011;20110;53.120;5.786;2022-07-23T05:46:05;10.77;;;4.10;;
33802;SDS011;20110;53.120;5.786;2022-07-23T05:48:30;5.63;;;3.72;;
33802;SDS011;20110;53.120;5.786;2022-07-23T05:50:56;4.40;;;4.00;;
33802;SDS011;20110;53.120;5.786;2022-07-23T05:53:22;6.68;;;3.42;;
33802;SDS011;20110;53.120;5.786;2022-07-23T05:55:49;3.47;;;3.17;;
33802;SDS011;20110;53.120;5.786;2022-07-23T05:58:15;13.32;;;3.53;;
33802;SDS011;20110;53.120;5.786;2022-07-23T06:00:41;8.77;;;2.60;;
33802;SDS011;20110;53.120;5.786;2022-07-23T06:03:07;6.25;;;3.08;;
33802;SDS011;20110;53.120;5.786;2022-07-23T06:05:33;4.55;;;2.30;;
33802;SDS011;20110;53.120;5.786;2022-07-23T06:07:59;2.30;;;2.10;;
33802;SDS011;20110;53.120;5.786;2022-07-23T06:10:24;4.28;;;2.30;;
33802;SDS011;20110;53.120;5.786;2022-07-23T06:12:50;5.00;;;1.92;;
33802;SDS011;20110;53.120;5.786;2022-07-23T06:15:16;2.78;;;1.50;;
33802;SDS011;20110;53.120;5.786;2022-07-23T06:17:42;3.28;;;1.60;;
33802;SDS011;20110;53.120;5.786;2022-07-23T06:20:08;3.22;;;1.40;;
33802;SDS011;20110;53.120;5.786;2022-07-23T06:22:35;2.20;;;1.70;;
33802;SDS011;20110;53.120;5.786;2022-07-23T06:25:02;3.60;;;0.98;;
33802;SDS011;20110;53.120;5.786;2022-07-23T06:27:28;2.80;;;1.10;;
33802;SDS011;20110;53.120;5.786;2022-07-23T06:29:54;2.67;;;1.17;;
33802;SDS011;20110;53.120;5.786;2022-07-23T06:32:19;2.10;;;0.80;;
33802;SDS011;20110;53.120;5.786;2022-07-23T06:34:46;5.10;;;0.80;;
33802;SDS011;20110;53.120;5.786;2022-07-23T06:37:11;0.88;;;0.60;;
33802;SDS011;20110;53.120;5.786;2022-07-23T06:39:37;2.80;;;0.38;;
33802;SDS011;20110;53.120;5.786;2022-07-23T06:42:03;3.28;;;0.68;;
33802;SDS011;20110;53.120;5.786;2022-07-23T06:44:29;1.10;;;0.40;;
33802;SDS011;20110;53.120;5.786;2022-07-23T06:46:55;1.58;;;0.60;;
33802;SDS011;20110;53.120;5.786;2022-07-23T06:49:21;1.23;;;0.57;;
33802;SDS011;20110;53.120;5.786;2022-07-23T06:51:46;1.65;;;0.70;;
33802;SDS011;20110;53.120;5.786;2022-07-23T06:54:12;1.15;;;0.70;;
33802;SDS011;20110;53.120;5.786;2022-07-23T06:56:38;1.75;;;0.55;;
33802;SDS011;20110;53.120;5.786;2022-07-23T06:59:04;2.60;;;0.50;;
33802;SDS011;20110;53.120;5.786;2022-07-23T07:01:29;3.70;;;0.88;;
33802;SDS011;20110;53.120;5.786;2022-07-23T07:03:56;0.82;;;0.47;;
33802;SDS011;20110;53.120;5.786;2022-07-23T07:06:21;1.15;;;0.57;;
33802;SDS011;20110;53.120;5.786;2022-07-23T07:08:47;2.20;;;0.40;;
33802;SDS011;20110;53.120;5.786;2022-07-23T07:11:13;7.28;;;0.80;;
33802;SDS011;20110;53.120;5.786;2022-07-23T07:13:39;3.40;;;0.60;;
33802;SDS011;20110;53.120;5.786;2022-07-23T07:16:04;1.92;;;0.32;;
33802;SDS011;20110;53.120;5.786;2022-07-23T07:18:31;2.03;;;0.43;;
33802;SDS011;20110;53.120;5.786;2022-07-23T07:20:56;1.17;;;0.32;;
33802;SDS011;20110;53.120;5.786;2022-07-23T07:23:23;1.00;;;0.50;;
33802;SDS011;20110;53.120;5.786;2022-07-23T07:25:50;1.63;;;0.50;;
33802;SDS011;20110;53.120;5.786;2022-07-23T07:28:16;1.67;;;0.65;;
33802;SDS011;20110;53.120;5.786;2022-07-23T07:30:42;1.02;;;0.43;;
33802;SDS011;20110;53.120;5.786;2022-07-23T07:33:07;1.00;;;0.40;;
33802;SDS011;20110;53.120;5.786;2022-07-23T07:35:33;4.85;;;0.63;;
33802;SDS011;20110;53.120;5.786;2022-07-23T07:37:59;1.27;;;0.63;;
33802;SDS011;20110;53.120;5.786;2022-07-23T07:40:26;2.53;;;0.40;;
33802;SDS011;20110;53.120;5.786;2022-07-23T07:42:52;0.30;;;0.30;;
33802;SDS011;20110;53.120;5.786;2022-07-23T07:45:21;2.67;;;0.57;;
33802;SDS011;20110;53.120;5.786;2022-07-23T07:47:49;1.67;;;0.60;;
33802;SDS011;20110;53.120;5.786;2022-07-23T07:50:17;0.50;;;0.50;;
33802;SDS011;20110;53.120;5.786;2022-07-23T07:52:44;0.77;;;0.50;;
33802;SDS011;20110;53.120;5.786;2022-07-23T07:55:10;1.17;;;0.60;;
33802;SDS011;20110;53.120;5.786;2022-07-23T07:57:37;2.03;;;0.40;;
33802;SDS011;20110;53.120;5.786;2022-07-23T08:00:04;1.00;;;0.60;;
33802;SDS011;20110;53.120;5.786;2022-07-23T08:05:13;1.83;;;0.60;;
33802;SDS011;20110;53.120;5.786;2022-07-23T08:07:43;1.75;;;0.57;;
33802;SDS011;20110;53.120;5.786;2022-07-23T08:10:09;0.75;;;0.50;;
33802;SDS011;20110;53.120;5.786;2022-07-23T08:12:42;0.73;;;0.40;;
33802;SDS011;20110;53.120;5.786;2022-07-23T08:15:15;6.38;;;0.40;;
33802;SDS011;20110;53.120;5.786;2022-07-23T08:17:44;1.38;;;0.60;;
33802;SDS011;20110;53.120;5.786;2022-07-23T08:20:11;1.73;;;0.38;;
33802;SDS011;20110;53.120;5.786;2022-07-23T08:22:49;0.45;;;0.40;;
33802;SDS011;20110;53.120;5.786;2022-07-23T08:25:22;0.43;;;0.40;;
33802;SDS011;20110;53.120;5.786;2022-07-23T08:27:50;1.90;;;0.30;;
33802;SDS011;20110;53.120;5.786;2022-07-23T08:30:17;1.05;;;0.70;;
33802;SDS011;20110;53.120;5.786;2022-07-23T08:32:48;4.85;;;0.50;;
33802;SDS011;20110;53.120;5.786;2022-07-23T08:35:17;2.80;;;0.70;;
33802;SDS011;20110;53.120;5.786;2022-07-23T08:37:58;0.85;;;0.50;;
33802;SDS011;20110;53.120;5.786;2022-07-23T08:40:26;1.35;;;0.65;;
33802;SDS011;20110;53.120;5.786;2022-07-23T08:42:55;5.22;;;0.77;;
33802;SDS011;20110;53.120;5.786;2022-07-23T08:45:23;1.17;;;0.40;;
33802;SDS011;20110;53.120;5.786;2022-07-23T08:47:53;1.20;;;0.50;;
33802;SDS011;20110;53.120;5.786;2022-07-23T08:50:22;0.80;;;0.40;;
33802;SDS011;20110;53.120;5.786;2022-07-23T08:52:49;2.03;;;0.80;;
33802;SDS011;20110;53.120;5.786;2022-07-23T08:55:17;0.50;;;0.40;;
33802;SDS011;20110;53.120;5.786;2022-07-23T08:57:44;4.75;;;0.60;;
33802;SDS011;20110;53.120;5.786;2022-07-23T09:00:16;1.95;;;0.68;;
33802;SDS011;20110;53.120;5.786;2022-07-23T09:02:45;3.83;;;0.50;;
33802;SDS011;20110;53.120;5.786;2022-07-23T09:05:12;0.50;;;0.50;;
33802;SDS011;20110;53.120;5.786;2022-07-23T09:16:14;0.75;;;0.65;;
33802;SDS011;20110;53.120;5.786;2022-07-23T09:18:48;2.58;;;0.50;;
33802;SDS011;20110;53.120;5.786;2022-07-23T09:21:22;2.00;;;0.63;;
33802;SDS011;20110;53.120;5.786;2022-07-23T09:23:59;2.00;;;1.00;;
33802;SDS011;20110;53.120;5.786;2022-07-23T09:34:21;2.72;;;1.13;;
33802;SDS011;20110;53.120;5.786;2022-07-23T09:37:10;4.30;;;0.80;;
33802;SDS011;20110;53.120;5.786;2022-07-23T09:39:41;3.40;;;0.80;;
33802;SDS011;20110;53.120;5.786;2022-07-23T09:42:19;1.30;;;1.08;;
33802;SDS011;20110;53.120;5.786;2022-07-23T09:44:52;2.08;;;0.88;;
33802;SDS011;20110;53.120;5.786;2022-07-23T09:47:20;0.90;;;0.90;;
33802;SDS011;20110;53.120;5.786;2022-07-23T09:50:08;1.25;;;0.80;;
33802;SDS011;20110;53.120;5.786;2022-07-23T09:52:47;2.50;;;0.60;;
33802;SDS011;20110;53.120;5.786;2022-07-23T09:55:15;5.82;;;0.98;;
33802;SDS011;20110;53.120;5.786;2022-07-23T09:57:43;4.05;;;0.80;;
33802;SDS011;20110;53.120;5.786;2022-07-23T10:00:11;2.95;;;1.17;;
33802;SDS011;20110;53.120;5.786;2022-07-23T10:02:39;2.65;;;0.93;;
33802;SDS011;20110;53.120;5.786;2022-07-23T10:05:06;2.30;;;0.90;;
33802;SDS011;20110;53.120;5.786;2022-07-23T10:07:34;3.60;;;0.90;;
33802;SDS011;20110;53.120;5.786;2022-07-23T10:10:06;2.70;;;0.90;;
33802;SDS011;20110;53.120;5.786;2022-07-23T10:12:32;0.73;;;0.70;;
33802;SDS011;20110;53.120;5.786;2022-07-23T10:15:01;4.63;;;0.93;;
33802;SDS011;20110;53.120;5.786;2022-07-23T10:17:29;1.05;;;0.80;;
33802;SDS011;20110;53.120;5.786;2022-07-23T10:19:55;1.58;;;0.90;;
33802;SDS011;20110;53.120;5.786;2022-07-23T10:22:26;1.23;;;0.90;;
33802;SDS011;20110;53.120;5.786;2022-07-23T10:28:06;2.35;;;1.17;;
33802;SDS011;20110;53.120;5.786;2022-07-23T10:31:28;1.00;;;1.00;;
33802;SDS011;20110;53.120;5.786;2022-07-23T10:35:03;4.13;;;0.98;;
33802;SDS011;20110;53.120;5.786;2022-07-23T10:37:27;3.80;;;0.70;;
33802;SDS011;20110;53.120;5.786;2022-07-23T10:42:47;1.38;;;0.70;;
33802;SDS011;20110;53.120;5.786;2022-07-23T10:45:36;2.58;;;0.90;;
33802;SDS011;20110;53.120;5.786;2022-07-23T10:48:21;0.98;;;0.93;;
33802;SDS011;20110;53.120;5.786;2022-07-23T10:51:14;1.15;;;0.90;;
33802;SDS011;20110;53.120;5.786;2022-07-23T11:00:35;4.82;;;1.13;;
33802;SDS011;20110;53.120;5.786;2022-07-23T11:02:39;3.70;;;1.10;;
33802;SDS011;20110;53.120;5.786;2022-07-23T11:05:08;1.98;;;1.02;;
33802;SDS011;20110;53.120;5.786;2022-07-23T11:08:09;2.97;;;0.90;;
33802;SDS011;20110;53.120;5.786;2022-07-23T11:26:49;5.07;;;1.20;;
33802;SDS011;20110;53.120;5.786;2022-07-23T11:31:57;0.93;;;0.70;;
33802;SDS011;20110;53.120;5.786;2022-07-23T11:34:33;1.90;;;1.35;;
33802;SDS011;20110;53.120;5.786;2022-07-23T11:37:10;2.15;;;0.95;;
33802;SDS011;20110;53.120;5.786;2022-07-23T11:39:55;2.47;;;1.05;;
33802;SDS011;20110;53.120;5.786;2022-07-23T11:42:23;0.90;;;0.80;;
33802;SDS011;20110;53.120;5.786;2022-07-23T11:44:49;1.85;;;0.93;;
33802;SDS011;20110;53.120;5.786;2022-07-23T11:47:20;2.08;;;1.05;;
33802;SDS011;20110;53.120;5.786;2022-07-23T11:50:01;1.77;;;1.33;;
33802;SDS011;20110;53.120;5.786;2022-07-23T11:52:31;1.65;;;1.15;;
33802;SDS011;20110;53.120;5.786;2022-07-23T11:55:04;3.17;;;1.35;;
33802;SDS011;20110;53.120;5.786;2022-07-23T11:57:38;1.05;;;0.90;;
33802;SDS011;20110;53.120;5.786;2022-07-23T12:00:16;2.08;;;1.13;;
33802;SDS011;20110;53.120;5.786;2022-07-23T12:02:49;1.45;;;1.10;;
33802;SDS011;20110;53.120;5.786;2022-07-23T12:05:24;2.83;;;1.20;;
33802;SDS011;20110;53.120;5.786;2022-07-23T12:07:54;2.70;;;1.23;;
33802;SDS011;20110;53.120;5.786;2022-07-23T12:10:24;1.80;;;0.98;;
33802;SDS011;20110;53.120;5.786;2022-07-23T12:12:57;2.58;;;1.08;;
33802;SDS011;20110;53.120;5.786;2022-07-23T12:17:58;4.22;;;1.00;;
33802;SDS011;20110;53.120;5.786;2022-07-23T12:20:27;2.45;;;1.60;;
33802;SDS011;20110;53.120;5.786;2022-07-23T12:22:57;4.82;;;1.40;;
33802;SDS011;20110;53.120;5.786;2022-07-23T12:25:28;1.95;;;1.23;;
33802;SDS011;20110;53.120;5.786;2022-07-23T12:30:40;2.80;;;1.08;;
33802;SDS011;20110;53.120;5.786;2022-07-23T12:33:09;1.30;;;1.20;;
33802;SDS011;20110;53.120;5.786;2022-07-23T12:35:49;1.55;;;0.82;;
33802;SDS011;20110;53.120;5.786;2022-07-23T12:38:17;1.30;;;1.20;;
33802;SDS011;20110;53.120;5.786;2022-07-23T12:40:53;4.47;;;1.10;;
33802;SDS011;20110;53.120;5.786;2022-07-23T12:43:31;3.00;;;1.10;;
33802;SDS011;20110;53.120;5.786;2022-07-23T12:46:19;2.47;;;1.23;;
33802;SDS011;20110;53.120;5.786;2022-07-23T12:51:19;1.35;;;0.90;;
33802;SDS011;20110;53.120;5.786;2022-07-23T12:53:47;2.03;;;1.30;;
33802;SDS011;20110;53.120;5.786;2022-07-23T12:56:20;2.70;;;1.40;;
33802;SDS011;20110;53.120;5.786;2022-07-23T12:59:05;5.68;;;1.55;;
33802;SDS011;20110;53.120;5.786;2022-07-23T13:01:38;2.70;;;1.40;;
33802;SDS011;20110;53.120;5.786;2022-07-23T13:04:13;2.03;;;1.38;;
33802;SDS011;20110;53.120;5.786;2022-07-23T13:06:59;2.97;;;1.33;;
33802;SDS011;20110;53.120;5.786;2022-07-23T13:09:27;1.00;;;0.85;;
33802;SDS011;20110;53.120;5.786;2022-07-23T13:11:55;2.42;;;1.05;;
33802;SDS011;20110;53.120;5.786;2022-07-23T13:14:22;4.85;;;0.98;;
33802;SDS011;20110;53.120;5.786;2022-07-23T13:16:50;2.22;;;1.20;;
33802;SDS011;20110;53.120;5.786;2022-07-23T13:19:18;1.95;;;1.30;;
33802;SDS011;20110;53.120;5.786;2022-07-23T13:21:45;1.15;;;1.05;;
33802;SDS011;20110;53.120;5.786;2022-07-23T13:24:11;5.97;;;1.50;;
33802;SDS011;20110;53.120;5.786;2022-07-23T13:26:38;2.40;;;1.27;;
33802;SDS011;20110;53.120;5.786;2022-07-23T13:29:05;1.55;;;1.25;;
33802;SDS011;20110;53.120;5.786;2022-07-23T13:31:32;2.30;;;1.40;;
33802;SDS011;20110;53.120;5.786;2022-07-23T13:33:58;3.88;;;1.05;;
33802;SDS011;20110;53.120;5.786;2022-07-23T13:36:23;6.68;;;1.40;;
33802;SDS011;20110;53.120;5.786;2022-07-23T13:38:49;1.88;;;1.25;;
33802;SDS011;20110;53.120;5.786;2022-07-23T13:41:16;4.63;;;1.63;;
33802;SDS011;20110;53.120;5.786;2022-07-23T13:43:43;5.20;;;1.70;;
33802;SDS011;20110;53.120;5.786;2022-07-23T13:46:09;3.58;;;1.30;;
33802;SDS011;20110;53.120;5.786;2022-07-23T13:48:35;2.60;;;1.65;;
33802;SDS011;20110;53.120;5.786;2022-07-23T13:51:01;3.88;;;1.25;;
33802;SDS011;20110;53.120;5.786;2022-07-23T13:53:27;2.35;;;1.40;;
33802;SDS011;20110;53.120;5.786;2022-07-23T13:55:53;4.78;;;1.65;;
33802;SDS011;20110;53.120;5.786;2022-07-23T13:58:19;1.80;;;1.40;;
33802;SDS011;20110;53.120;5.786;2022-07-23T14:00:47;3.72;;;1.42;;
33802;SDS011;20110;53.120;5.786;2022-07-23T14:03:17;3.83;;;1.50;;
33802;SDS011;20110;53.120;5.786;2022-07-23T14:05:44;1.63;;;1.15;;
33802;SDS011;20110;53.120;5.786;2022-07-23T14:08:10;1.92;;;1.58;;
33802;SDS011;20110;53.120;5.786;2022-07-23T14:10:36;1.60;;;1.30;;
33802;SDS011;20110;53.120;5.786;2022-07-23T14:13:02;2.40;;;1.40;;
33802;SDS011;20110;53.120;5.786;2022-07-23T14:15:29;3.58;;;1.13;;
33802;SDS011;20110;53.120;5.786;2022-07-23T14:17:57;2.40;;;1.40;;
33802;SDS011;20110;53.120;5.786;2022-07-23T14:20:23;2.83;;;1.70;;
33802;SDS011;20110;53.120;5.786;2022-07-23T14:22:50;2.05;;;1.50;;
33802;SDS011;20110;53.120;5.786;2022-07-23T14:25:17;1.85;;;1.58;;
33802;SDS011;20110;53.120;5.786;2022-07-23T14:27:43;6.13;;;1.50;;
33802;SDS011;20110;53.120;5.786;2022-07-23T14:30:10;3.33;;;1.60;;
33802;SDS011;20110;53.120;5.786;2022-07-23T14:32:38;2.58;;;1.60;;
33802;SDS011;20110;53.120;5.786;2022-07-23T14:35:04;3.80;;;1.60;;
33802;SDS011;20110;53.120;5.786;2022-07-23T14:37:30;4.50;;;1.40;;
33802;SDS011;20110;53.120;5.786;2022-07-23T14:39:56;2.00;;;1.20;;
33802;SDS011;20110;53.120;5.786;2022-07-23T14:42:22;3.78;;;1.50;;
33802;SDS011;20110;53.120;5.786;2022-07-23T14:44:48;3.75;;;1.70;;
33802;SDS011;20110;53.120;5.786;2022-07-23T14:47:14;1.73;;;1.30;;
33802;SDS011;20110;53.120;5.786;2022-07-23T14:49:40;3.63;;;1.50;;
33802;SDS011;20110;53.120;5.786;2022-07-23T14:52:06;2.85;;;1.60;;
33802;SDS011;20110;53.120;5.786;2022-07-23T14:54:32;1.52;;;1.40;;
33802;SDS011;20110;53.120;5.786;2022-07-23T14:56:59;1.45;;;1.33;;
33802;SDS011;20110;53.120;5.786;2022-07-23T14:59:27;1.85;;;1.40;;
33802;SDS011;20110;53.120;5.786;2022-07-23T15:01:55;4.75;;;1.55;;
33802;SDS011;20110;53.120;5.786;2022-07-23T15:04:22;2.55;;;1.13;;
33802;SDS011;20110;53.120;5.786;2022-07-23T15:06:48;1.48;;;1.33;;
33802;SDS011;20110;53.120;5.786;2022-07-23T15:09:14;4.43;;;1.35;;
33802;SDS011;20110;53.120;5.786;2022-07-23T15:11:40;4.70;;;1.23;;
33802;SDS011;20110;53.120;5.786;2022-07-23T15:14:07;1.20;;;1.02;;
33802;SDS011;20110;53.120;5.786;2022-07-23T15:16:33;1.85;;;1.20;;
33802;SDS011;20110;53.120;5.786;2022-07-23T15:19:00;3.45;;;1.50;;
33802;SDS011;20110;53.120;5.786;2022-07-23T15:21:28;3.28;;;1.05;;
33802;SDS011;20110;53.120;5.786;2022-07-23T15:23:55;2.17;;;1.48;;
33802;SDS011;20110;53.120;5.786;2022-07-23T15:26:24;3.15;;;1.23;;
33802;SDS011;20110;53.120;5.786;2022-07-23T15:28:51;6.15;;;1.80;;
33802;SDS011;20110;53.120;5.786;2022-07-23T15:31:17;1.95;;;1.40;;
33802;SDS011;20110;53.120;5.786;2022-07-23T15:33:43;4.30;;;1.25;;
33802;SDS011;20110;53.120;5.786;2022-07-23T15:36:09;8.70;;;7.43;;
33802;SDS011;20110;53.120;5.786;2022-07-23T15:38:35;7.35;;;6.75;;
33802;SDS011;20110;53.120;5.786;2022-07-23T15:41:01;2.08;;;1.50;;
33802;SDS011;20110;53.120;5.786;2022-07-23T15:43:28;1.75;;;1.17;;
33802;SDS011;20110;53.120;5.786;2022-07-23T15:45:55;3.45;;;2.65;;
33802;SDS011;20110;53.120;5.786;2022-07-23T15:48:22;2.47;;;1.65;;